CKG5 weather

Manitou Airport
Manitou, Manitoba, Canada

Public forecast

Using degrees Celsius for public forecast. Weather courtesy of forecast.io.

Closest aviation weather report (METAR) to Manitou Airport

Closest report is Robertson Field, 30.3 nm (56.2 km) S. Retrieved 2020/06/01 05:15 UTC (10 minutes ago):

KD55 010515Z AUTO 16015G21KT 10SM OVC047 21/13 A2985 RMK AO2

Closest aviation forecast (TAF) to Manitou Airport

Forecast is more than 12 hours old.

Closest forecast is Southport Airport, 40.5 nm (75.0 km) NNE. Retrieved 2020/05/30 12:33 UTC (2 days ago):

TAF CYPG 301130Z 3012/3024 FCST CNCLD DUE END OF FLYING PROGRAM RMK NXT FCST BY 011215Z